sensor_id;sensor_type;location;lat;lon;timestamp;pressure;altitude;pressure_sealevel;temperature;humidity
75219;BME280;63801;49.414;19.474;2023-09-08T00:00:49;94708.97;;;13.34;74.01
75219;BME280;63801;49.414;19.474;2023-09-08T00:02:50;94707.38;;;13.33;74.30
75219;BME280;63801;49.414;19.474;2023-09-08T00:04:51;94712.81;;;13.33;74.56
75219;BME280;63801;49.414;19.474;2023-09-08T00:06:52;94716.66;;;13.32;74.73
75219;BME280;63801;49.414;19.474;2023-09-08T00:08:52;94709.66;;;13.31;74.68
75219;BME280;63801;49.414;19.474;2023-09-08T00:10:53;94708.06;;;13.30;74.70
75219;BME280;63801;49.414;19.474;2023-09-08T00:12:54;94707.28;;;13.29;74.52
75219;BME280;63801;49.414;19.474;2023-09-08T00:14:55;94706.50;;;13.29;74.54
75219;BME280;63801;49.414;19.474;2023-09-08T00:16:55;94704.91;;;13.28;74.51
75219;BME280;63801;49.414;19.474;2023-09-08T00:18:57;94701.75;;;13.26;74.49
75219;BME280;63801;49.414;19.474;2023-09-08T00:21:00;94700.19;;;13.25;74.61
75219;BME280;63801;49.414;19.474;2023-09-08T00:23:01;94701.31;;;13.24;74.72
75219;BME280;63801;49.414;19.474;2023-09-08T00:25:02;94688.69;;;13.16;74.71
75219;BME280;63801;49.414;19.474;2023-09-08T00:27:04;94697.69;;;13.20;74.67
75219;BME280;63801;49.414;19.474;2023-09-08T00:29:04;94698.41;;;13.17;74.37
75219;BME280;63801;49.414;19.474;2023-09-08T00:31:05;94694.53;;;13.05;74.45
75219;BME280;63801;49.414;19.474;2023-09-08T00:33:05;94699.63;;;13.07;74.75
75219;BME280;63801;49.414;19.474;2023-09-08T00:35:11;94690.03;;;12.97;74.67
75219;BME280;63801;49.414;19.474;2023-09-08T00:37:11;94699.03;;;13.01;74.89
75219;BME280;63801;49.414;19.474;2023-09-08T00:39:11;94700.84;;;12.97;74.85
75219;BME280;63801;49.414;19.474;2023-09-08T00:41:12;94700.75;;;12.94;75.00
75219;BME280;63801;49.414;19.474;2023-09-08T00:43:12;94706.06;;;12.90;75.21
75219;BME280;63801;49.414;19.474;2023-09-08T00:45:12;94695.34;;;12.82;75.10
75219;BME280;63801;49.414;19.474;2023-09-08T00:47:13;94701.19;;;12.84;74.96
75219;BME280;63801;49.414;19.474;2023-09-08T00:49:13;94706.50;;;12.80;75.26
75219;BME280;63801;49.414;19.474;2023-09-08T00:51:14;94711.91;;;12.80;75.57
75219;BME280;63801;49.414;19.474;2023-09-08T00:53:14;94707.19;;;12.77;75.12
75219;BME280;63801;49.414;19.474;2023-09-08T00:55:15;94703.59;;;12.73;75.39
75219;BME280;63801;49.414;19.474;2023-09-08T00:57:16;94692.09;;;12.64;75.55
75219;BME280;63801;49.414;19.474;2023-09-08T00:59:17;94711.25;;;12.71;75.49
75219;BME280;63801;49.414;19.474;2023-09-08T01:01:17;94714.06;;;12.75;75.54
75219;BME280;63801;49.414;19.474;2023-09-08T01:03:17;94707.53;;;12.76;75.72
75219;BME280;63801;49.414;19.474;2023-09-08T01:05:19;94704.03;;;12.75;75.58
75219;BME280;63801;49.414;19.474;2023-09-08T01:07:20;94686.66;;;12.64;75.53
75219;BME280;63801;49.414;19.474;2023-09-08T01:09:21;94702.00;;;12.72;75.48
75219;BME280;63801;49.414;19.474;2023-09-08T01:11:23;94708.41;;;12.68;75.54
75219;BME280;63801;49.414;19.474;2023-09-08T01:13:23;94707.84;;;12.62;75.49
75219;BME280;63801;49.414;19.474;2023-09-08T01:15:24;94692.41;;;12.50;75.80
75219;BME280;63801;49.414;19.474;2023-09-08T01:17:25;94686.78;;;12.43;75.65
75219;BME280;63801;49.414;19.474;2023-09-08T01:19:25;94688.34;;;12.44;75.80
75219;BME280;63801;49.414;19.474;2023-09-08T01:21:42;94699.72;;;12.50;75.93
75219;BME280;63801;49.414;19.474;2023-09-08T01:26:12;94691.16;;;12.36;75.84
75219;BME280;63801;49.414;19.474;2023-09-08T01:28:17;94714.16;;;12.42;75.99
75219;BME280;63801;49.414;19.474;2023-09-08T01:30:20;94710.53;;;12.38;76.02
75219;BME280;63801;49.414;19.474;2023-09-08T01:32:22;94689.22;;;12.24;76.22
75219;BME280;63801;49.414;19.474;2023-09-08T01:34:22;94708.94;;;12.37;76.11
75219;BME280;63801;49.414;19.474;2023-09-08T01:36:23;94707.38;;;12.36;76.18
75219;BME280;63801;49.414;19.474;2023-09-08T01:38:24;94701.53;;;12.34;75.92
75219;BME280;63801;49.414;19.474;2023-09-08T01:40:25;94697.22;;;12.33;76.03
75219;BME280;63801;49.414;19.474;2023-09-08T01:42:25;94675.59;;;12.21;76.20
75219;BME280;63801;49.414;19.474;2023-09-08T01:44:25;94695.66;;;12.32;76.38
75219;BME280;63801;49.414;19.474;2023-09-08T01:46:26;94671.28;;;12.20;76.19
75219;BME280;63801;49.414;19.474;2023-09-08T01:48:26;94685.72;;;12.24;76.38
75219;BME280;63801;49.414;19.474;2023-09-08T01:50:26;94692.81;;;12.28;76.15
75219;BME280;63801;49.414;19.474;2023-09-08T01:52:27;94697.13;;;12.29;76.35
75219;BME280;63801;49.414;19.474;2023-09-08T01:54:27;94684.81;;;12.20;76.49
75219;BME280;63801;49.414;19.474;2023-09-08T01:56:27;94704.44;;;12.29;76.13
75219;BME280;63801;49.414;19.474;2023-09-08T01:58:28;94699.25;;;12.24;76.26
75219;BME280;63801;49.414;19.474;2023-09-08T02:00:30;94689.75;;;12.18;76.36
75219;BME280;63801;49.414;19.474;2023-09-08T02:02:30;94692.47;;;12.18;76.00
75219;BME280;63801;49.414;19.474;2023-09-08T02:04:30;94692.69;;;12.12;76.46
75219;BME280;63801;49.414;19.474;2023-09-08T02:06:31;94686.34;;;12.08;76.65
75219;BME280;63801;49.414;19.474;2023-09-08T02:08:31;94691.09;;;12.11;76.52
75219;BME280;63801;49.414;19.474;2023-09-08T02:10:31;94691.75;;;12.08;76.18
75219;BME280;63801;49.414;19.474;2023-09-08T02:12:32;94688.63;;;12.06;76.44
75219;BME280;63801;49.414;19.474;2023-09-08T02:14:32;94692.31;;;12.02;76.51
75219;BME280;63801;49.414;19.474;2023-09-08T02:16:32;94703.44;;;12.00;76.62
75219;BME280;63801;49.414;19.474;2023-09-08T02:18:33;94695.22;;;11.97;76.68
75219;BME280;63801;49.414;19.474;2023-09-08T02:20:33;94685.63;;;11.87;76.45
75219;BME280;63801;49.414;19.474;2023-09-08T02:22:33;94687.88;;;11.85;76.52
75219;BME280;63801;49.414;19.474;2023-09-08T02:24:34;94673.47;;;11.81;76.90
75219;BME280;63801;49.414;19.474;2023-09-08T02:26:34;94686.97;;;11.81;76.70
75219;BME280;63801;49.414;19.474;2023-09-08T02:28:34;94686.06;;;11.77;76.96
75219;BME280;63801;49.414;19.474;2023-09-08T02:30:35;94691.00;;;11.75;76.80
75219;BME280;63801;49.414;19.474;2023-09-08T02:32:35;94676.53;;;11.71;76.98
75219;BME280;63801;49.414;19.474;2023-09-08T02:34:36;94672.00;;;11.63;76.97
75219;BME280;63801;49.414;19.474;2023-09-08T02:36:39;94670.75;;;11.60;76.84
75219;BME280;63801;49.414;19.474;2023-09-08T02:38:40;94675.84;;;11.62;77.05
75219;BME280;63801;49.414;19.474;2023-09-08T02:40:40;94671.41;;;11.57;77.17
75219;BME280;63801;49.414;19.474;2023-09-08T02:42:40;94678.53;;;11.62;77.07
75219;BME280;63801;49.414;19.474;2023-09-08T02:44:41;94670.63;;;11.57;76.72
75219;BME280;63801;49.414;19.474;2023-09-08T02:46:41;94671.91;;;11.59;77.14
75219;BME280;63801;49.414;19.474;2023-09-08T02:48:42;94669.31;;;11.63;77.20
75219;BME280;63801;49.414;19.474;2023-09-08T02:50:43;94656.00;;;11.58;77.29
75219;BME280;63801;49.414;19.474;2023-09-08T02:52:44;94666.63;;;11.63;77.19
75219;BME280;63801;49.414;19.474;2023-09-08T02:54:44;94656.81;;;11.58;77.13
75219;BME280;63801;49.414;19.474;2023-09-08T02:56:45;94663.72;;;11.68;77.00
75219;BME280;63801;49.414;19.474;2023-09-08T02:58:45;94662.75;;;11.64;77.40
75219;BME280;63801;49.414;19.474;2023-09-08T03:00:45;94663.56;;;11.64;77.05
75219;BME280;63801;49.414;19.474;2023-09-08T03:02:46;94662.31;;;11.62;77.16
75219;BME280;63801;49.414;19.474;2023-09-08T03:04:46;94662.66;;;11.60;77.19
75219;BME280;63801;49.414;19.474;2023-09-08T03:06:47;94662.22;;;11.58;77.23
75219;BME280;63801;49.414;19.474;2023-09-08T03:08:47;94664.78;;;11.55;77.20
75219;BME280;63801;49.414;19.474;2023-09-08T03:10:47;94656.88;;;11.50;77.42
75219;BME280;63801;49.414;19.474;2023-09-08T03:12:48;94660.69;;;11.49;77.31
75219;BME280;63801;49.414;19.474;2023-09-08T03:14:48;94672.16;;;11.46;77.26
75219;BME280;63801;49.414;19.474;2023-09-08T03:16:49;94670.78;;;11.40;77.38
75219;BME280;63801;49.414;19.474;2023-09-08T03:18:50;94668.59;;;11.33;77.27
75219;BME280;63801;49.414;19.474;2023-09-08T03:20:50;94663.25;;;11.24;77.44
75219;BME280;63801;49.414;19.474;2023-09-08T03:22:52;94667.94;;;11.15;77.49
75219;BME280;63801;49.414;19.474;2023-09-08T03:24:52;94667.69;;;11.08;77.54
75219;BME280;63801;49.414;19.474;2023-09-08T03:26:53;94656.94;;;11.00;77.66
75219;BME280;63801;49.414;19.474;2023-09-08T03:28:53;94667.88;;;11.03;77.62
75219;BME280;63801;49.414;19.474;2023-09-08T03:30:54;94665.53;;;11.02;77.79
75219;BME280;63801;49.414;19.474;2023-09-08T03:32:54;94657.75;;;11.00;77.79
75219;BME280;63801;49.414;19.474;2023-09-08T03:34:54;94663.00;;;10.97;77.76
75219;BME280;63801;49.414;19.474;2023-09-08T03:36:55;94666.94;;;10.99;77.82
75219;BME280;63801;49.414;19.474;2023-09-08T03:38:55;94667.63;;;10.96;77.79
75219;BME280;63801;49.414;19.474;2023-09-08T03:40:58;94664.25;;;10.99;77.92
75219;BME280;63801;49.414;19.474;2023-09-08T03:42:58;94654.50;;;10.86;77.86
75219;BME280;63801;49.414;19.474;2023-09-08T03:44:58;94649.78;;;10.83;77.99
75219;BME280;63801;49.414;19.474;2023-09-08T03:46:59;94644.25;;;10.79;77.85
75219;BME280;63801;49.414;19.474;2023-09-08T03:48:59;94663.53;;;10.90;77.87
75219;BME280;63801;49.414;19.474;2023-09-08T03:51:01;94665.09;;;10.91;77.85
75219;BME280;63801;49.414;19.474;2023-09-08T03:53:01;94662.72;;;10.90;78.13
75219;BME280;63801;49.414;19.474;2023-09-08T03:55:02;94662.09;;;10.93;77.67
75219;BME280;63801;49.414;19.474;2023-09-08T03:57:02;94662.28;;;10.88;77.66
75219;BME280;63801;49.414;19.474;2023-09-08T03:59:03;94652.47;;;10.83;77.91
75219;BME280;63801;49.414;19.474;2023-09-08T04:01:03;94664.31;;;10.91;77.92
75219;BME280;63801;49.414;19.474;2023-09-08T04:03:04;94664.50;;;10.86;77.94
75219;BME280;63801;49.414;19.474;2023-09-08T04:05:04;94651.53;;;10.79;77.87
75219;BME280;63801;49.414;19.474;2023-09-08T04:07:05;94667.00;;;10.91;77.89
75219;BME280;63801;49.414;19.474;2023-09-08T04:09:05;94660.81;;;10.90;78.02
75219;BME280;63801;49.414;19.474;2023-09-08T04:11:06;94668.91;;;10.90;78.05
75219;BME280;63801;49.414;19.474;2023-09-08T04:13:06;94673.81;;;10.97;78.06
75219;BME280;63801;49.414;19.474;2023-09-08T04:15:07;94666.16;;;10.99;78.08
75219;BME280;63801;49.414;19.474;2023-09-08T04:17:07;94650.03;;;10.90;78.10
75219;BME280;63801;49.414;19.474;2023-09-08T04:19:08;94661.44;;;10.96;77.75
75219;BME280;63801;49.414;19.474;2023-09-08T04:21:08;94676.44;;;11.05;78.12
75219;BME280;63801;49.414;19.474;2023-09-08T04:23:08;94668.00;;;11.07;78.23
75219;BME280;63801;49.414;19.474;2023-09-08T04:25:09;94667.25;;;11.06;78.29
75219;BME280;63801;49.414;19.474;2023-09-08T04:27:10;94668.78;;;11.07;78.04
75219;BME280;63801;49.414;19.474;2023-09-08T04:29:11;94670.38;;;11.08;77.83
75219;BME280;63801;49.414;19.474;2023-09-08T04:31:11;94670.38;;;11.08;78.13
75219;BME280;63801;49.414;19.474;2023-09-08T04:33:11;94667.69;;;11.08;78.17
75219;BME280;63801;49.414;19.474;2023-09-08T04:35:12;94658.66;;;11.04;78.12
75219;BME280;63801;49.414;19.474;2023-09-08T04:37:13;94654.06;;;11.05;78.32
75219;BME280;63801;49.414;19.474;2023-09-08T04:39:14;94667.31;;;11.18;78.61
75219;BME280;63801;49.414;19.474;2023-09-08T04:41:15;94665.19;;;11.24;78.30
75219;BME280;63801;49.414;19.474;2023-09-08T04:43:16;94659.66;;;11.20;78.47
75219;BME280;63801;49.414;19.474;2023-09-08T04:45:16;94668.94;;;11.32;78.33
75219;BME280;63801;49.414;19.474;2023-09-08T04:47:16;94662.22;;;11.38;78.46
75219;BME280;63801;49.414;19.474;2023-09-08T04:49:17;94665.84;;;11.42;78.38
75219;BME280;63801;49.414;19.474;2023-09-08T04:51:17;94648.25;;;11.36;78.43
75219;BME280;63801;49.414;19.474;2023-09-08T04:53:17;94645.25;;;11.37;78.29
75219;BME280;63801;49.414;19.474;2023-09-08T04:55:18;94665.91;;;11.54;78.44
75219;BME280;63801;49.414;19.474;2023-09-08T04:57:19;94660.75;;;11.61;78.39
75219;BME280;63801;49.414;19.474;2023-09-08T04:59:20;94671.81;;;11.68;78.34
75219;BME280;63801;49.414;19.474;2023-09-08T05:01:21;94671.13;;;11.71;78.46
75219;BME280;63801;49.414;19.474;2023-09-08T05:03:21;94667.78;;;11.74;78.42
75219;BME280;63801;49.414;19.474;2023-09-08T05:05:21;94673.47;;;11.81;78.43
75219;BME280;63801;49.414;19.474;2023-09-08T05:07:22;94658.56;;;11.75;78.25
75219;BME280;63801;49.414;19.474;2023-09-08T05:09:22;94656.00;;;11.79;78.55
75219;BME280;63801;49.414;19.474;2023-09-08T05:11:22;94671.13;;;11.92;78.36
75219;BME280;63801;49.414;19.474;2023-09-08T05:13:23;94673.50;;;11.93;78.51
75219;BME280;63801;49.414;19.474;2023-09-08T05:15:26;94664.34;;;11.86;78.15
75219;BME280;63801;49.414;19.474;2023-09-08T05:17:27;94675.09;;;11.94;78.54
75219;BME280;63801;49.414;19.474;2023-09-08T05:19:27;94675.53;;;12.08;79.16
75219;BME280;63801;49.414;19.474;2023-09-08T05:21:28;94675.13;;;12.31;79.38
75219;BME280;63801;49.414;19.474;2023-09-08T05:23:28;94672.47;;;12.55;79.29
75219;BME280;63801;49.414;19.474;2023-09-08T05:25:28;94670.19;;;12.93;79.87
75219;BME280;63801;49.414;19.474;2023-09-08T05:27:29;94649.94;;;13.39;79.65
75219;BME280;63801;49.414;19.474;2023-09-08T05:29:29;94655.75;;;14.25;78.22
75219;BME280;63801;49.414;19.474;2023-09-08T05:31:29;94661.81;;;15.16;76.60
75219;BME280;63801;49.414;19.474;2023-09-08T05:33:29;94660.41;;;15.95;75.81
75219;BME280;63801;49.414;19.474;2023-09-08T05:35:30;94654.94;;;16.83;75.00
75219;BME280;63801;49.414;19.474;2023-09-08T05:37:30;94657.34;;;17.67;72.61
75219;BME280;63801;49.414;19.474;2023-09-08T05:39:30;94640.47;;;18.24;71.70
75219;BME280;63801;49.414;19.474;2023-09-08T05:41:31;94648.91;;;18.93;69.88
75219;BME280;63801;49.414;19.474;2023-09-08T05:43:32;94651.69;;;19.51;69.59
75219;BME280;63801;49.414;19.474;2023-09-08T05:45:32;94644.09;;;20.10;67.80
75219;BME280;63801;49.414;19.474;2023-09-08T05:47:33;94648.16;;;20.69;67.65
75219;BME280;63801;49.414;19.474;2023-09-08T05:49:33;94638.78;;;21.16;66.34
75219;BME280;63801;49.414;19.474;2023-09-08T05:51:33;94648.84;;;21.76;65.25
75219;BME280;63801;49.414;19.474;2023-09-08T05:53:34;94653.03;;;22.16;64.75
75219;BME280;63801;49.414;19.474;2023-09-08T05:55:35;94643.03;;;22.50;63.42
75219;BME280;63801;49.414;19.474;2023-09-08T05:57:36;94647.53;;;22.85;62.51
75219;BME280;63801;49.414;19.474;2023-09-08T05:59:37;94658.34;;;23.10;61.59
75219;BME280;63801;49.414;19.474;2023-09-08T06:01:37;94653.88;;;23.26;60.93
75219;BME280;63801;49.414;19.474;2023-09-08T06:03:37;94641.59;;;23.35;59.73
75219;BME280;63801;49.414;19.474;2023-09-08T06:05:38;94646.88;;;23.15;60.05
75219;BME280;63801;49.414;19.474;2023-09-08T06:07:38;94649.91;;;22.79;59.71
75219;BME280;63801;49.414;19.474;2023-09-08T06:09:38;94646.25;;;22.38;59.73
75219;BME280;63801;49.414;19.474;2023-09-08T06:11:39;94642.47;;;22.11;59.33
75219;BME280;63801;49.414;19.474;2023-09-08T06:13:39;94645.69;;;21.95;59.72
75219;BME280;63801;49.414;19.474;2023-09-08T06:15:39;94653.53;;;21.93;58.58
75219;BME280;63801;49.414;19.474;2023-09-08T06:17:40;94642.59;;;21.68;59.13
75219;BME280;63801;49.414;19.474;2023-09-08T06:19:40;94645.38;;;21.47;58.99
75219;BME280;63801;49.414;19.474;2023-09-08T06:21:40;94650.13;;;21.29;58.94
75219;BME280;63801;49.414;19.474;2023-09-08T06:23:41;94646.59;;;21.03;58.75
75219;BME280;63801;49.414;19.474;2023-09-08T06:25:41;94645.41;;;20.76;58.90
75219;BME280;63801;49.414;19.474;2023-09-08T06:27:41;94649.69;;;20.42;58.83
75219;BME280;63801;49.414;19.474;2023-09-08T06:29:42;94655.06;;;20.13;59.19
75219;BME280;63801;49.414;19.474;2023-09-08T06:31:43;94662.00;;;19.86;59.22
75219;BME280;63801;49.414;19.474;2023-09-08T06:33:44;94654.09;;;19.70;59.45
75219;BME280;63801;49.414;19.474;2023-09-08T06:35:45;94662.31;;;19.67;59.73
75219;BME280;63801;49.414;19.474;2023-09-08T06:37:46;94654.50;;;19.69;59.80
75219;BME280;63801;49.414;19.474;2023-09-08T06:39:46;94658.03;;;19.73;59.96
75219;BME280;63801;49.414;19.474;2023-09-08T06:41:47;94658.03;;;19.73;59.89
75219;BME280;63801;49.414;19.474;2023-09-08T06:43:47;94642.34;;;19.66;59.59
75219;BME280;63801;49.414;19.474;2023-09-08T06:45:48;94663.91;;;19.75;59.97
75219;BME280;63801;49.414;19.474;2023-09-08T06:47:49;94664.34;;;19.84;60.03
75219;BME280;63801;49.414;19.474;2023-09-08T06:49:50;94665.13;;;19.85;60.16
75219;BME280;63801;49.414;19.474;2023-09-08T06:51:51;94662.81;;;19.94;60.56
75219;BME280;63801;49.414;19.474;2023-09-08T06:53:57;94653.13;;;20.17;60.35
75219;BME280;63801;49.414;19.474;2023-09-08T06:56:00;94659.53;;;20.71;59.78
75219;BME280;63801;49.414;19.474;2023-09-08T06:58:00;94653.63;;;21.12;59.69
75219;BME280;63801;49.414;19.474;2023-09-08T07:00:01;94656.31;;;21.61;59.21
75219;BME280;63801;49.414;19.474;2023-09-08T07:02:01;94659.22;;;22.34;58.51
75219;BME280;63801;49.414;19.474;2023-09-08T07:04:01;94643.56;;;22.90;57.08
75219;BME280;63801;49.414;19.474;2023-09-08T07:06:02;94648.09;;;23.10;56.43
75219;BME280;63801;49.414;19.474;2023-09-08T07:08:03;94650.50;;;23.08;55.75
75219;BME280;63801;49.414;19.474;2023-09-08T07:10:06;94651.44;;;22.88;55.56
75219;BME280;63801;49.414;19.474;2023-09-08T07:12:07;94654.75;;;22.58;55.29
75219;BME280;63801;49.414;19.474;2023-09-08T07:14:07;94671.38;;;22.33;55.61
75219;BME280;63801;49.414;19.474;2023-09-08T07:16:08;94660.09;;;22.10;55.75
75219;BME280;63801;49.414;19.474;2023-09-08T07:18:08;94648.84;;;21.69;56.00
75219;BME280;63801;49.414;19.474;2023-09-08T07:20:09;94664.22;;;21.45;56.05
75219;BME280;63801;49.414;19.474;2023-09-08T07:22:09;94657.56;;;21.21;56.42
75219;BME280;63801;49.414;19.474;2023-09-08T07:24:10;94661.88;;;20.94;56.56
75219;BME280;63801;49.414;19.474;2023-09-08T07:26:10;94668.91;;;20.77;57.11
75219;BME280;63801;49.414;19.474;2023-09-08T07:28:11;94667.31;;;20.58;57.27
75219;BME280;63801;49.414;19.474;2023-09-08T07:30:11;94673.16;;;20.43;58.07
75219;BME280;63801;49.414;19.474;2023-09-08T07:32:12;94665.31;;;20.31;58.07
75219;BME280;63801;49.414;19.474;2023-09-08T07:34:12;94663.66;;;20.12;58.38
75219;BME280;63801;49.414;19.474;2023-09-08T07:36:13;94672.25;;;20.07;58.55
75219;BME280;63801;49.414;19.474;2023-09-08T07:38:14;94669.88;;;19.98;59.19
75219;BME280;63801;49.414;19.474;2023-09-08T07:40:14;94673.00;;;20.00;59.82
75219;BME280;63801;49.414;19.474;2023-09-08T07:42:14;94657.31;;;19.90;59.96
75219;BME280;63801;49.414;19.474;2023-09-08T07:44:14;94670.66;;;19.95;59.98
75219;BME280;63801;49.414;19.474;2023-09-08T07:46:15;94668.66;;;19.92;60.41
75219;BME280;63801;49.414;19.474;2023-09-08T07:48:15;94669.06;;;19.94;60.61
75219;BME280;63801;49.414;19.474;2023-09-08T07:50:24;94667.88;;;19.92;60.44
75219;BME280;63801;49.414;19.474;2023-09-08T07:52:25;94670.22;;;19.90;60.70
75219;BME280;63801;49.414;19.474;2023-09-08T07:54:25;94669.84;;;19.91;61.42
75219;BME280;63801;49.414;19.474;2023-09-08T07:56:25;94671.03;;;20.01;61.42
75219;BME280;63801;49.414;19.474;2023-09-08T07:58:26;94669.13;;;20.12;61.68
75219;BME280;63801;49.414;19.474;2023-09-08T08:00:26;94664.47;;;20.23;61.06
75219;BME280;63801;49.414;19.474;2023-09-08T08:02:27;94667.59;;;20.22;60.78
75219;BME280;63801;49.414;19.474;2023-09-08T08:04:27;94666.03;;;20.21;61.54
75219;BME280;63801;49.414;19.474;2023-09-08T08:06:28;94655.09;;;20.24;61.58
75219;BME280;63801;49.414;19.474;2023-09-08T08:08:28;94652.81;;;20.44;61.43
75219;BME280;63801;49.414;19.474;2023-09-08T08:10:29;94649.34;;;20.82;61.42
75219;BME280;63801;49.414;19.474;2023-09-08T08:12:30;94663.44;;;21.09;60.74
75219;BME280;63801;49.414;19.474;2023-09-08T08:14:30;94657.16;;;21.30;60.48
75219;BME280;63801;49.414;19.474;2023-09-08T08:16:31;94657.56;;;21.46;60.09
75219;BME280;63801;49.414;19.474;2023-09-08T08:18:31;94654.34;;;21.65;60.02
75219;BME280;63801;49.414;19.474;2023-09-08T08:20:32;94660.16;;;22.03;60.34
75219;BME280;63801;49.414;19.474;2023-09-08T08:22:36;94647.81;;;22.39;59.65
75219;BME280;63801;49.414;19.474;2023-09-08T08:24:36;94652.28;;;22.77;58.60
75219;BME280;63801;49.414;19.474;2023-09-08T08:26:37;94647.19;;;23.24;58.57
75219;BME280;63801;49.414;19.474;2023-09-08T08:28:37;94641.22;;;23.73;57.64
75219;BME280;63801;49.414;19.474;2023-09-08T08:30:37;94647.16;;;24.06;56.58
75219;BME280;63801;49.414;19.474;2023-09-08T08:32:38;94642.84;;;24.35;57.12
75219;BME280;63801;49.414;19.474;2023-09-08T08:34:38;94647.41;;;24.76;56.32
75219;BME280;63801;49.414;19.474;2023-09-08T08:36:39;94643.16;;;25.21;55.69
75219;BME280;63801;49.414;19.474;2023-09-08T08:38:39;94636.19;;;25.60;54.67
75219;BME280;63801;49.414;19.474;2023-09-08T08:40:39;94637.94;;;25.93;53.78
75219;BME280;63801;49.414;19.474;2023-09-08T08:42:40;94640.34;;;26.30;53.03
75219;BME280;63801;49.414;19.474;2023-09-08T08:44:42;94636.47;;;26.64;51.99
75219;BME280;63801;49.414;19.474;2023-09-08T08:46:45;94632.75;;;26.90;51.38
75219;BME280;63801;49.414;19.474;2023-09-08T08:48:46;94623.56;;;27.09;50.78
75219;BME280;63801;49.414;19.474;2023-09-08T08:50:47;94639.81;;;27.40;50.29
75219;BME280;63801;49.414;19.474;2023-09-08T08:52:48;94635.06;;;27.56;49.62
75219;BME280;63801;49.414;19.474;2023-09-08T08:54:48;94628.72;;;27.72;48.66
75219;BME280;63801;49.414;19.474;2023-09-08T08:56:49;94620.91;;;27.83;48.03
75219;BME280;63801;49.414;19.474;2023-09-08T08:58:50;94624.81;;;27.98;48.02
75219;BME280;63801;49.414;19.474;2023-09-08T09:00:51;94630.44;;;28.11;47.74
75219;BME280;63801;49.414;19.474;2023-09-08T09:02:53;94623.81;;;28.21;46.86
75219;BME280;63801;49.414;19.474;2023-09-08T09:04:54;94618.94;;;28.25;46.15
75219;BME280;63801;49.414;19.474;2023-09-08T09:06:55;94620.13;;;28.11;46.34
75219;BME280;63801;49.414;19.474;2023-09-08T09:08:55;94622.97;;;28.08;46.49
75219;BME280;63801;49.414;19.474;2023-09-08T09:10:56;94615.44;;;28.08;46.22
75219;BME280;63801;49.414;19.474;2023-09-08T09:12:56;94610.66;;;28.09;46.47
75219;BME280;63801;49.414;19.474;2023-09-08T09:14:58;94615.66;;;28.01;46.30
75219;BME280;63801;49.414;19.474;2023-09-08T09:16:58;94604.16;;;27.87;46.60
75219;BME280;63801;49.414;19.474;2023-09-08T09:19:00;94604.91;;;27.75;47.05
75219;BME280;63801;49.414;19.474;2023-09-08T09:21:01;94605.59;;;27.62;46.90
75219;BME280;63801;49.414;19.474;2023-09-08T09:23:01;94609.34;;;27.40;47.20
75219;BME280;63801;49.414;19.474;2023-09-08T09:25:02;94603.50;;;27.21;47.53
75219;BME280;63801;49.414;19.474;2023-09-08T09:27:05;94590.00;;;27.07;48.05
75219;BME280;63801;49.414;19.474;2023-09-08T09:29:13;94588.97;;;27.01;48.43
75219;BME280;63801;49.414;19.474;2023-09-08T09:31:14;94590.63;;;26.99;48.87
75219;BME280;63801;49.414;19.474;2023-09-08T09:33:14;94600.22;;;26.94;48.85
75219;BME280;63801;49.414;19.474;2023-09-08T09:35:15;94591.22;;;26.90;49.13
75219;BME280;63801;49.414;19.474;2023-09-08T09:37:18;94573.72;;;26.77;49.19
75219;BME280;63801;49.414;19.474;2023-09-08T09:39:24;94603.63;;;26.82;48.81
75219;BME280;63801;49.414;19.474;2023-09-08T09:41:24;94595.16;;;26.73;49.62
75219;BME280;63801;49.414;19.474;2023-09-08T09:43:27;94594.03;;;26.70;49.38
75219;BME280;63801;49.414;19.474;2023-09-08T09:45:28;94600.66;;;26.57;49.12
75219;BME280;63801;49.414;19.474;2023-09-08T09:47:28;94592.19;;;26.48;50.07
75219;BME280;63801;49.414;19.474;2023-09-08T09:49:29;94589.59;;;26.41;50.09
75219;BME280;63801;49.414;19.474;2023-09-08T09:51:32;94575.47;;;26.35;50.08
75219;BME280;63801;49.414;19.474;2023-09-08T09:53:33;94587.91;;;26.27;49.88
75219;BME280;63801;49.414;19.474;2023-09-08T09:55:33;94594.56;;;26.29;50.57
75219;BME280;63801;49.414;19.474;2023-09-08T09:57:34;94585.13;;;26.27;50.16
75219;BME280;63801;49.414;19.474;2023-09-08T09:59:35;94584.50;;;26.19;49.86
75219;BME280;63801;49.414;19.474;2023-09-08T10:01:36;94585.34;;;26.16;50.34
75219;BME280;63801;49.414;19.474;2023-09-08T10:03:40;94585.00;;;26.14;50.02
75219;BME280;63801;49.414;19.474;2023-09-08T10:05:41;94580.03;;;26.06;50.34
75219;BME280;63801;49.414;19.474;2023-09-08T10:07:42;94576.84;;;26.07;50.23
75219;BME280;63801;49.414;19.474;2023-09-08T10:09:43;94578.25;;;26.15;50.03
75219;BME280;63801;49.414;19.474;2023-09-08T10:11:50;94579.81;;;26.16;50.15
75219;BME280;63801;49.414;19.474;2023-09-08T10:13:53;94576.47;;;26.25;49.98
75219;BME280;63801;49.414;19.474;2023-09-08T10:15:58;94564.00;;;26.17;49.60
75219;BME280;63801;49.414;19.474;2023-09-08T10:18:04;94571.03;;;26.21;49.56
75219;BME280;63801;49.414;19.474;2023-09-08T10:20:05;94569.81;;;26.42;49.88
75219;BME280;63801;49.414;19.474;2023-09-08T10:22:12;94577.84;;;26.53;49.38
75219;BME280;63801;49.414;19.474;2023-09-08T10:24:29;94570.16;;;26.60;49.22
75219;BME280;63801;49.414;19.474;2023-09-08T10:26:33;94565.25;;;26.68;49.16
75219;BME280;63801;49.414;19.474;2023-09-08T10:28:36;94567.31;;;26.80;48.60
75219;BME280;63801;49.414;19.474;2023-09-08T10:30:37;94563.88;;;26.92;47.90
75219;BME280;63801;49.414;19.474;2023-09-08T10:32:38;94572.53;;;26.94;47.36
75219;BME280;63801;49.414;19.474;2023-09-08T10:34:42;94563.56;;;26.90;47.56